createdAt,value
2019-03-26T00:02:45.708Z,86.75
2019-03-26T00:05:32.711Z,86.76
2019-03-26T00:08:19.264Z,86.86
2019-03-26T00:11:05.621Z,86.65
2019-03-26T00:13:52.135Z,86.04
2019-03-26T00:16:38.195Z,86.01
2019-03-26T00:19:24.430Z,86.00
2019-03-26T00:22:11.070Z,86.10
2019-03-26T00:24:57.776Z,85.27
2019-03-26T00:27:43.919Z,85.69
2019-03-26T00:30:30.155Z,85.16
2019-03-26T00:33:16.595Z,85.15
2019-03-26T00:36:04.066Z,85.34
2019-03-26T00:38:50.627Z,85.38
2019-03-26T00:41:38.329Z,85.44
2019-03-26T00:44:24.317Z,85.18
2019-03-26T00:47:10.710Z,85.52
2019-03-26T00:49:57.264Z,85.18
2019-03-26T00:52:44.795Z,85.73
2019-03-26T00:55:32.143Z,85.51
2019-03-26T00:58:20.121Z,85.70
2019-03-26T01:01:06.303Z,85.17
2019-03-26T01:03:54.949Z,85.85
2019-03-26T01:06:41.067Z,85.03
2019-03-26T01:09:27.464Z,85.68
2019-03-26T01:12:13.867Z,85.47
2019-03-26T01:15:00.327Z,85.42
2019-03-26T01:17:46.252Z,85.77
2019-03-26T01:20:32.836Z,85.30
2019-03-26T01:23:19.479Z,85.55
2019-03-26T01:26:05.677Z,85.92
2019-03-26T01:28:51.879Z,85.46
2019-03-26T01:31:38.063Z,85.34
2019-03-26T01:34:24.425Z,85.72
2019-03-26T01:37:10.519Z,85.26
2019-03-26T01:39:56.503Z,84.90
2019-03-26T01:42:44.039Z,84.35
2019-03-26T01:45:30.475Z,83.91
2019-03-26T01:48:16.696Z,84.12
2019-03-26T01:51:03.272Z,84.02
2019-03-26T01:53:49.688Z,83.33
2019-03-26T01:56:35.787Z,83.97
2019-03-26T01:59:24.156Z,84.57
2019-03-26T02:02:10.268Z,83.93
2019-03-26T02:05:00.170Z,83.54
2019-03-26T02:07:44.929Z,83.71
2019-03-26T02:10:31.220Z,83.81
2019-03-26T02:13:18.035Z,83.90
2019-03-26T02:16:04.233Z,84.34
2019-03-26T02:18:52.272Z,83.96
2019-03-26T02:21:38.644Z,83.98
2019-03-26T02:24:25.154Z,83.88
2019-03-26T02:27:12.436Z,84.26
2019-03-26T02:29:58.524Z,83.73
2019-03-26T02:32:44.541Z,83.73
2019-03-26T02:35:30.886Z,83.54
2019-03-26T02:38:17.081Z,82.92
2019-03-26T02:41:03.644Z,82.86
2019-03-26T02:43:50.105Z,82.58
2019-03-26T02:46:36.524Z,82.92
2019-03-26T02:49:23.100Z,82.66
2019-03-26T02:52:09.602Z,82.47
2019-03-26T02:54:57.219Z,82.04
2019-03-26T02:57:43.601Z,82.21
2019-03-26T03:00:30.065Z,81.44
2019-03-26T03:03:16.138Z,81.98
2019-03-26T03:06:02.778Z,81.69
2019-03-26T03:08:49.050Z,81.04
2019-03-26T03:11:34.979Z,80.72
2019-03-26T03:14:21.682Z,81.07
2019-03-26T03:17:08.506Z,80.40
2019-03-26T03:19:54.427Z,80.49
2019-03-26T03:22:40.913Z,79.85
2019-03-26T03:25:27.267Z,79.85
2019-03-26T03:28:13.315Z,79.77
2019-03-26T03:30:59.910Z,79.10
2019-03-26T03:33:46.270Z,79.61
2019-03-26T03:36:32.604Z,80.57
2019-03-26T03:39:19.123Z,80.40
2019-03-26T03:42:05.415Z,79.87
2019-03-26T03:44:51.529Z,79.60
2019-03-26T03:47:38.729Z,79.89
2019-03-26T03:50:28.429Z,79.22
2019-03-26T03:53:17.269Z,80.17
2019-03-26T03:56:04.859Z,80.12
2019-03-26T03:58:51.399Z,79.79
2019-03-26T04:01:38.335Z,81.28
2019-03-26T04:04:24.328Z,80.63
2019-03-26T04:07:10.844Z,80.52
2019-03-26T04:09:57.365Z,80.69
2019-03-26T04:12:43.631Z,79.98
2019-03-26T04:15:34.361Z,79.34
2019-03-26T04:18:18.337Z,78.90
2019-03-26T04:21:05.044Z,79.40
2019-03-26T04:23:52.826Z,79.40
2019-03-26T04:26:38.873Z,78.92
2019-03-26T04:29:25.073Z,78.22
2019-03-26T04:32:11.636Z,78.05
2019-03-26T04:34:57.972Z,78.29
2019-03-26T04:37:44.193Z,77.22
2019-03-26T04:40:30.816Z,77.02
2019-03-26T04:43:18.959Z,77.86
2019-03-26T04:46:05.356Z,77.98
2019-03-26T04:48:52.153Z,76.99
2019-03-26T04:51:38.695Z,77.47
2019-03-26T04:54:24.612Z,77.30
2019-03-26T04:57:11.333Z,78.52
2019-03-26T04:59:57.605Z,79.02
2019-03-26T05:02:43.668Z,78.73
2019-03-26T05:05:29.777Z,80.20
2019-03-26T05:08:16.059Z,79.90
2019-03-26T05:11:02.647Z,80.03
2019-03-26T05:13:49.008Z,79.77
2019-03-26T05:16:35.148Z,76.82
2019-03-26T05:19:21.377Z,76.70
2019-03-26T05:22:07.496Z,75.10
2019-03-26T05:24:53.997Z,74.37
2019-03-26T05:27:45.739Z,73.64
2019-03-26T05:30:28.872Z,74.02
2019-03-26T05:33:15.060Z,73.87
2019-03-26T05:36:01.498Z,74.57
2019-03-26T05:38:47.973Z,74.87
2019-03-26T05:41:34.676Z,74.35
2019-03-26T05:44:20.831Z,74.50
2019-03-26T05:47:08.005Z,74.63
2019-03-26T05:49:54.009Z,75.27
2019-03-26T05:52:40.220Z,75.69
2019-03-26T05:55:26.976Z,75.99
2019-03-26T05:58:14.429Z,75.50
2019-03-26T06:01:00.687Z,76.27
2019-03-26T06:03:46.948Z,76.43
2019-03-26T06:06:32.888Z,77.20
2019-03-26T06:09:19.496Z,76.07
2019-03-26T06:12:05.998Z,75.80
2019-03-26T06:14:52.248Z,75.63
2019-03-26T06:17:38.972Z,75.82
2019-03-26T06:20:25.307Z,75.54
2019-03-26T06:23:12.672Z,75.62
2019-03-26T06:25:59.168Z,75.27
2019-03-26T06:28:45.473Z,75.13
2019-03-26T06:31:32.187Z,73.97
2019-03-26T06:34:18.549Z,74.71
2019-03-26T06:37:17.087Z,72.50
2019-03-26T06:39:53.149Z,72.74
2019-03-26T06:42:40.049Z,72.53
2019-03-26T06:45:26.393Z,71.88
2019-03-26T06:48:12.333Z,71.68
2019-03-26T06:50:59.284Z,73.33
2019-03-26T06:53:45.556Z,71.78
2019-03-26T06:56:31.669Z,73.20
2019-03-26T06:59:18.430Z,73.03
2019-03-26T07:02:04.843Z,72.54
2019-03-26T07:04:51.074Z,72.55
2019-03-26T07:07:37.266Z,73.25
2019-03-26T07:10:27.151Z,72.18
2019-03-26T07:13:14.428Z,72.98
2019-03-26T07:16:02.910Z,72.16
2019-03-26T07:18:49.285Z,72.47
2019-03-26T07:21:35.393Z,71.64
2019-03-26T07:24:21.612Z,70.60
2019-03-26T07:27:08.220Z,70.05
2019-03-26T07:29:54.509Z,69.66
2019-03-26T07:32:40.461Z,70.74
2019-03-26T07:35:30.650Z,71.50
2019-03-26T07:38:17.277Z,71.20
2019-03-26T07:41:03.602Z,69.01
2019-03-26T07:43:50.316Z,69.19
2019-03-26T07:46:36.573Z,69.58
2019-03-26T07:49:22.718Z,68.84
2019-03-26T07:52:09.497Z,71.35
2019-03-26T07:54:55.821Z,71.29
2019-03-26T07:57:41.919Z,71.04
2019-03-26T08:00:36.122Z,71.93
2019-03-26T08:03:21.865Z,70.33
2019-03-26T08:06:08.289Z,70.72
2019-03-26T08:08:54.736Z,69.32
2019-03-26T08:11:41.006Z,69.21
2019-03-26T08:14:27.526Z,63.88
2019-03-26T08:17:14.578Z,66.26
2019-03-26T08:20:00.726Z,62.98
2019-03-26T08:22:47.609Z,61.32
2019-03-26T08:25:34.514Z,62.13
2019-03-26T08:28:20.810Z,58.04
2019-03-26T08:31:06.938Z,61.94
2019-03-26T08:33:53.613Z,61.06
2019-03-26T08:36:40.238Z,62.92
2019-03-26T08:39:26.709Z,61.25
2019-03-26T08:42:12.765Z,58.79
2019-03-26T08:44:59.062Z,63.68
2019-03-26T08:47:45.785Z,64.87
2019-03-26T08:50:32.375Z,64.58
2019-03-26T08:53:19.105Z,64.28
2019-03-26T08:56:06.076Z,67.01
2019-03-26T08:58:52.489Z,66.26
2019-03-26T09:01:38.971Z,66.75
2019-03-26T09:04:26.996Z,65.49
2019-03-26T09:07:14.038Z,62.79
2019-03-26T09:10:00.416Z,64.51
2019-03-26T09:12:47.073Z,64.19
2019-03-26T09:15:33.385Z,63.02
2019-03-26T09:18:19.477Z,63.19
2019-03-26T09:21:05.683Z,61.86
2019-03-26T09:23:52.386Z,59.26
2019-03-26T09:26:38.733Z,62.02
2019-03-26T09:29:25.165Z,63.18
2019-03-26T09:32:11.246Z,64.92
2019-03-26T09:34:57.576Z,65.46
2019-03-26T09:37:43.699Z,65.17
2019-03-26T09:40:30.060Z,65.49
2019-03-26T09:43:17.018Z,66.35
2019-03-26T09:46:03.277Z,66.29
2019-03-26T09:48:51.898Z,68.70
2019-03-26T09:51:38.633Z,69.86
2019-03-26T09:54:24.630Z,70.06
2019-03-26T09:57:10.982Z,69.92
2019-03-26T09:59:57.142Z,70.27
2019-03-26T10:02:43.848Z,68.97
2019-03-26T10:05:30.214Z,70.58
2019-03-26T10:08:18.050Z,71.69
2019-03-26T10:11:04.438Z,73.47
2019-03-26T10:13:50.811Z,73.84
2019-03-26T10:16:37.118Z,73.81
2019-03-26T10:19:24.635Z,73.91
2019-03-26T10:22:10.886Z,75.07
2019-03-26T10:24:57.042Z,74.97
2019-03-26T10:27:43.910Z,75.84
2019-03-26T10:30:40.169Z,74.97
2019-03-26T10:33:26.218Z,74.56
2019-03-26T10:36:12.763Z,76.06
2019-03-26T10:39:05.320Z,75.94
2019-03-26T10:41:47.006Z,75.03
2019-03-26T10:44:33.504Z,74.15
2019-03-26T10:47:20.215Z,75.47
2019-03-26T10:50:06.677Z,75.15
2019-03-26T10:52:53.637Z,74.78
2019-03-26T10:55:39.730Z,74.19
2019-03-26T10:58:25.919Z,73.17
2019-03-26T11:01:12.126Z,72.39
2019-03-26T11:03:59.998Z,72.37
2019-03-26T11:06:46.279Z,72.09
2019-03-26T11:09:32.408Z,68.55
2019-03-26T11:12:19.640Z,68.37
2019-03-26T11:15:08.036Z,68.73
2019-03-26T11:17:54.298Z,68.89
2019-03-26T11:20:40.499Z,68.37
2019-03-26T11:23:26.659Z,67.34
2019-03-26T11:26:12.909Z,67.54
2019-03-26T11:28:59.229Z,67.33
2019-03-26T11:31:45.791Z,66.15
2019-03-26T11:34:31.895Z,67.01
2019-03-26T11:37:18.563Z,67.73
2019-03-26T11:40:05.120Z,66.68
2019-03-26T11:42:51.515Z,68.33
2019-03-26T11:45:37.610Z,67.99
2019-03-26T11:48:23.839Z,68.83
2019-03-26T11:51:10.030Z,68.43
2019-03-26T11:53:57.526Z,69.56
2019-03-26T11:56:44.436Z,70.12
2019-03-26T11:59:30.915Z,71.10
2019-03-26T12:02:17.732Z,73.07
2019-03-26T12:05:05.208Z,74.16
2019-03-26T12:07:51.080Z,73.93
2019-03-26T12:10:37.570Z,74.55
2019-03-26T12:13:23.484Z,75.53
2019-03-26T12:16:09.829Z,77.61
2019-03-26T12:18:59.803Z,79.53
2019-03-26T12:21:50.459Z,80.66
2019-03-26T12:24:36.766Z,80.75
2019-03-26T12:27:24.027Z,81.21
2019-03-26T12:30:11.179Z,80.33
2019-03-26T12:32:58.507Z,79.69
2019-03-26T12:35:44.931Z,79.51
2019-03-26T12:38:32.555Z,80.50
2019-03-26T12:41:19.327Z,81.97
2019-03-26T12:44:05.653Z,83.11
2019-03-26T12:46:51.839Z,83.14
2019-03-26T12:49:37.911Z,82.31
2019-03-26T12:52:24.793Z,81.58
2019-03-26T12:55:10.809Z,81.55
2019-03-26T12:57:56.855Z,80.82
2019-03-26T13:00:43.325Z,80.80
2019-03-26T13:03:29.680Z,80.42
2019-03-26T13:06:16.043Z,79.08
2019-03-26T13:09:02.392Z,78.38
2019-03-26T13:11:48.760Z,78.89
2019-03-26T13:14:35.324Z,78.18
2019-03-26T13:17:21.960Z,77.35
2019-03-26T13:20:08.839Z,77.11
2019-03-26T13:22:56.196Z,76.68
2019-03-26T13:25:42.644Z,77.19
2019-03-26T13:28:29.743Z,77.60
2019-03-26T13:31:15.808Z,76.64
2019-03-26T13:34:01.865Z,76.60
2019-03-26T13:36:47.905Z,76.55
2019-03-26T13:39:35.233Z,76.36
2019-03-26T13:42:21.569Z,76.12
2019-03-26T13:45:08.078Z,75.99
2019-03-26T13:47:54.262Z,74.99
2019-03-26T13:50:40.936Z,75.13
2019-03-26T13:53:27.601Z,75.49
2019-03-26T13:56:13.620Z,75.11
2019-03-26T13:58:59.968Z,76.21
2019-03-26T14:01:46.020Z,76.79
2019-03-26T14:04:32.316Z,76.09
2019-03-26T14:07:20.485Z,76.41
2019-03-26T14:10:07.068Z,76.28
2019-03-26T14:12:53.566Z,75.81
2019-03-26T14:15:40.120Z,76.68
2019-03-26T14:18:26.368Z,76.15
2019-03-26T14:21:13.159Z,75.96
2019-03-26T14:23:59.784Z,76.23
2019-03-26T14:26:46.285Z,76.05
2019-03-26T14:29:32.491Z,76.20
2019-03-26T14:32:19.098Z,76.47
2019-03-26T14:35:06.221Z,75.99
2019-03-26T14:37:55.385Z,76.68
2019-03-26T14:40:53.994Z,76.95
2019-03-26T14:43:30.050Z,75.96
2019-03-26T14:46:16.325Z,76.74
2019-03-26T14:49:03.241Z,76.21
2019-03-26T14:51:49.541Z,75.50
2019-03-26T14:54:35.528Z,76.29
2019-03-26T14:57:22.033Z,76.35
2019-03-26T15:00:08.763Z,75.76
2019-03-26T15:02:55.245Z,74.49
2019-03-26T15:05:41.477Z,75.11
2019-03-26T15:08:27.741Z,74.70
2019-03-26T15:11:13.723Z,74.61
2019-03-26T15:14:01.372Z,75.07
2019-03-26T15:16:47.857Z,75.15
2019-03-26T15:19:34.528Z,75.48
2019-03-26T15:22:20.660Z,74.75
2019-03-26T15:25:07.167Z,75.86
2019-03-26T15:27:53.413Z,76.41
2019-03-26T15:30:39.966Z,76.61
2019-03-26T15:33:26.262Z,76.48
2019-03-26T15:36:12.368Z,76.94
2019-03-26T15:38:58.938Z,76.91
2019-03-26T15:41:45.100Z,77.53
2019-03-26T15:44:31.473Z,77.63
2019-03-26T15:47:18.278Z,78.07
2019-03-26T15:50:05.545Z,78.19
2019-03-26T15:52:51.866Z,78.46
2019-03-26T15:55:38.571Z,78.17
2019-03-26T15:58:24.854Z,78.19
2019-03-26T16:01:14.212Z,77.59
2019-03-26T16:04:00.885Z,77.44
2019-03-26T16:06:46.788Z,78.13
2019-03-26T16:09:34.005Z,78.29
2019-03-26T16:12:20.316Z,78.24
2019-03-26T16:15:06.810Z,77.82
2019-03-26T16:17:52.874Z,78.38
2019-03-26T16:20:41.108Z,78.54
2019-03-26T16:23:27.462Z,78.56
2019-03-26T16:26:13.981Z,78.91
2019-03-26T16:29:03.437Z,78.87
2019-03-26T16:31:49.958Z,78.69
2019-03-26T16:34:36.226Z,78.08
2019-03-26T16:37:23.858Z,78.75
2019-03-26T16:40:10.570Z,77.77
2019-03-26T16:42:56.720Z,78.11
2019-03-26T16:45:44.796Z,77.90
2019-03-26T16:48:31.215Z,77.31
2019-03-26T16:51:17.791Z,77.78
2019-03-26T16:54:05.429Z,77.60
2019-03-26T16:56:51.793Z,77.29
2019-03-26T16:59:39.257Z,76.95
2019-03-26T17:02:25.884Z,76.42
2019-03-26T17:05:16.320Z,76.06
2019-03-26T17:08:15.315Z,76.60
2019-03-26T17:11:18.829Z,76.63
2019-03-26T17:14:05.147Z,76.67
2019-03-26T17:16:51.861Z,76.75
2019-03-26T17:19:38.322Z,76.43
2019-03-26T17:22:24.741Z,76.67
2019-03-26T17:25:11.712Z,76.49
2019-03-26T17:27:58.382Z,76.71
2019-03-26T17:30:44.886Z,77.29
2019-03-26T17:33:32.045Z,76.84
2019-03-26T17:36:18.097Z,77.36
2019-03-26T17:39:06.578Z,77.23
2019-03-26T17:41:53.363Z,77.02
2019-03-26T17:44:39.941Z,77.07
2019-03-26T17:47:26.063Z,76.62
2019-03-26T17:50:13.695Z,76.83
2019-03-26T17:52:59.790Z,77.09
2019-03-26T17:55:46.479Z,76.87
2019-03-26T17:58:33.315Z,76.36
2019-03-26T18:01:19.603Z,76.57
2019-03-26T18:04:06.215Z,77.30
2019-03-26T18:06:53.781Z,76.98
2019-03-26T18:09:40.139Z,76.57
2019-03-26T18:12:31.119Z,76.00
2019-03-26T18:15:15.607Z,75.34
2019-03-26T18:18:02.608Z,75.73
2019-03-26T18:20:48.822Z,75.26
2019-03-26T18:23:35.056Z,74.31
2019-03-26T18:26:22.022Z,73.66
2019-03-26T18:29:08.382Z,74.52
2019-03-26T18:31:54.503Z,73.68
2019-03-26T18:34:41.794Z,74.21
2019-03-26T18:37:32.571Z,74.21
2019-03-26T18:40:19.859Z,74.53
2019-03-26T18:43:06.454Z,74.68
2019-03-26T18:45:52.882Z,73.86
2019-03-26T18:48:41.505Z,73.91
2019-03-26T18:51:27.863Z,73.98
2019-03-26T18:54:14.070Z,73.70
2019-03-26T18:57:00.530Z,73.43
2019-03-26T18:59:46.623Z,73.70
2019-03-26T19:02:33.411Z,73.20
2019-03-26T19:05:19.883Z,74.59
2019-03-26T19:08:06.787Z,73.94
2019-03-26T19:10:53.108Z,74.77
2019-03-26T19:13:39.409Z,74.61
2019-03-26T19:16:25.771Z,75.37
2019-03-26T19:19:11.859Z,74.84
2019-03-26T19:21:58.331Z,75.09
2019-03-26T19:24:44.794Z,74.75
2019-03-26T19:27:31.259Z,75.03
2019-03-26T19:30:17.479Z,75.11
2019-03-26T19:33:03.971Z,74.88
2019-03-26T19:35:50.590Z,75.09
2019-03-26T19:38:36.765Z,74.94
2019-03-26T19:41:23.831Z,75.50
2019-03-26T19:44:10.720Z,75.34
2019-03-26T19:46:58.403Z,75.07
2019-03-26T19:49:44.994Z,75.06
2019-03-26T19:52:31.551Z,74.80
2019-03-26T19:55:17.731Z,74.59
2019-03-26T19:58:04.184Z,74.76
2019-03-26T20:00:50.740Z,75.20
2019-03-26T20:03:36.871Z,75.20
2019-03-26T20:06:24.115Z,75.28
2019-03-26T20:09:10.310Z,75.08
2019-03-26T20:11:56.335Z,75.01
2019-03-26T20:14:43.424Z,75.04
2019-03-26T20:17:30.339Z,75.42
2019-03-26T20:20:17.559Z,75.39
2019-03-26T20:23:04.787Z,74.64
2019-03-26T20:25:51.706Z,74.53
2019-03-26T20:28:38.301Z,74.71
2019-03-26T20:31:25.107Z,74.36
2019-03-26T20:34:11.211Z,74.91
2019-03-26T20:36:57.402Z,74.29
2019-03-26T20:39:44.313Z,74.20
2019-03-26T20:42:30.820Z,74.41
2019-03-26T20:45:17.523Z,74.77
2019-03-26T20:48:04.232Z,74.70
2019-03-26T20:50:50.853Z,74.30
2019-03-26T20:53:37.547Z,74.71
2019-03-26T20:56:24.780Z,75.12
2019-03-26T20:59:10.999Z,74.92
2019-03-26T21:01:57.060Z,74.87
2019-03-26T21:04:44.040Z,75.47
2019-03-26T21:07:30.494Z,73.94
2019-03-26T21:10:16.719Z,74.46
2019-03-26T21:13:03.652Z,74.68
2019-03-26T21:15:57.132Z,74.65
2019-03-26T21:18:38.739Z,74.36
2019-03-26T21:21:25.375Z,75.20
2019-03-26T21:24:11.598Z,74.51
2019-03-26T21:26:58.324Z,74.77
2019-03-26T21:29:44.530Z,74.09
2019-03-26T21:32:31.219Z,74.97
2019-03-26T21:35:18.427Z,75.50
2019-03-26T21:38:05.280Z,75.29
2019-03-26T21:40:51.475Z,74.88
2019-03-26T21:43:38.652Z,74.86
2019-03-26T21:46:25.807Z,75.47
2019-03-26T21:49:13.011Z,75.20
2019-03-26T21:52:00.865Z,75.66
2019-03-26T21:54:47.240Z,74.94
2019-03-26T21:57:35.230Z,75.17
2019-03-26T22:00:21.527Z,75.47
2019-03-26T22:03:07.833Z,75.03
2019-03-26T22:05:53.942Z,75.45
2019-03-26T22:08:40.011Z,75.67
2019-03-26T22:11:26.569Z,76.79
2019-03-26T22:14:18.266Z,77.16
2019-03-26T22:17:00.918Z,77.22
2019-03-26T22:19:47.488Z,77.31
2019-03-26T22:22:34.179Z,77.31
2019-03-26T22:25:20.225Z,77.56
2019-03-26T22:28:06.901Z,78.52
2019-03-26T22:30:52.912Z,78.50
2019-03-26T22:33:39.132Z,79.55
2019-03-26T22:36:26.860Z,79.97
2019-03-26T22:39:13.117Z,79.54
2019-03-26T22:41:59.669Z,79.55
2019-03-26T22:44:46.962Z,79.55
2019-03-26T22:47:33.371Z,79.29
2019-03-26T22:50:19.714Z,79.46
2019-03-26T22:53:06.470Z,78.58
2019-03-26T22:55:52.917Z,78.95
2019-03-26T22:58:39.621Z,79.27
2019-03-26T23:01:26.205Z,79.81
2019-03-26T23:04:12.299Z,80.46
2019-03-26T23:06:58.859Z,79.03
2019-03-26T23:09:45.305Z,78.81
2019-03-26T23:12:31.415Z,79.89
2019-03-26T23:15:22.340Z,80.27
2019-03-26T23:18:09.281Z,79.81
2019-03-26T23:20:55.813Z,79.73
2019-03-26T23:23:42.578Z,79.18
2019-03-26T23:26:29.121Z,79.95
2019-03-26T23:29:15.436Z,80.06
2019-03-26T23:32:01.998Z,79.40
2019-03-26T23:34:48.686Z,80.03
2019-03-26T23:37:35.097Z,79.75
2019-03-26T23:40:21.758Z,80.15
2019-03-26T23:43:08.265Z,80.20
2019-03-26T23:45:55.068Z,79.88
2019-03-26T23:48:41.451Z,79.98
2019-03-26T23:51:27.765Z,79.63
2019-03-26T23:54:13.925Z,79.30
2019-03-26T23:57:00.795Z,79.56
2019-03-26T23:59:47.110Z,79.58
